createdAt,value
2017-10-28T00:00:05.367Z,99.90
2017-10-28T00:02:33.570Z,99.90
2017-10-28T00:05:01.042Z,99.90
2017-10-28T00:07:28.498Z,99.90
2017-10-28T00:09:55.926Z,99.90
2017-10-28T00:12:24.242Z,99.90
2017-10-28T00:14:51.667Z,99.90
2017-10-28T00:17:19.879Z,99.90
2017-10-28T00:19:47.347Z,99.90
2017-10-28T00:22:14.777Z,99.90
2017-10-28T00:24:42.266Z,99.90
2017-10-28T00:27:09.730Z,99.90
2017-10-28T00:29:37.189Z,99.90
2017-10-28T00:32:10.314Z,99.90
2017-10-28T00:34:43.542Z,99.90
2017-10-28T00:37:10.971Z,99.90
2017-10-28T00:39:38.404Z,99.90
2017-10-28T00:42:05.829Z,99.90
2017-10-28T00:44:33.313Z,99.90
2017-10-28T00:47:00.738Z,99.90
2017-10-28T00:49:28.943Z,99.90
2017-10-28T00:51:56.370Z,99.90
2017-10-28T00:54:24.567Z,99.90
2017-10-28T00:56:52.062Z,99.90
2017-10-28T00:59:19.524Z,99.90
2017-10-28T01:01:46.974Z,99.90
2017-10-28T01:04:14.401Z,99.90
2017-10-28T01:06:42.617Z,99.90
2017-10-28T01:09:10.043Z,99.90
2017-10-28T01:11:38.244Z,99.90
2017-10-28T01:14:05.723Z,99.90
2017-10-28T01:16:33.178Z,99.90
2017-10-28T01:19:00.643Z,99.90
2017-10-28T01:21:28.108Z,99.90
2017-10-28T01:23:55.530Z,99.90
2017-10-28T01:26:23.746Z,99.90
2017-10-28T01:28:51.169Z,99.90
2017-10-28T01:31:19.384Z,99.90
2017-10-28T01:33:46.806Z,99.90
2017-10-28T01:36:15.003Z,99.90
2017-10-28T01:38:42.485Z,99.90
2017-10-28T01:41:09.914Z,99.90
2017-10-28T01:43:37.405Z,99.90
2017-10-28T01:46:04.866Z,99.90
2017-10-28T01:48:32.328Z,99.90
2017-10-28T01:50:59.786Z,99.90
2017-10-28T01:53:27.226Z,99.90
2017-10-28T01:55:54.678Z,99.90
2017-10-28T01:58:22.115Z,99.90
2017-10-28T02:00:49.538Z,99.90
2017-10-28T02:03:16.975Z,99.90
2017-10-28T02:05:44.459Z,99.90
2017-10-28T02:08:11.889Z,99.90
2017-10-28T02:10:39.307Z,99.90
2017-10-28T02:13:06.842Z,99.90
2017-10-28T02:15:34.289Z,99.90
2017-10-28T02:18:01.762Z,99.90
2017-10-28T02:20:29.200Z,99.90
2017-10-28T02:22:56.617Z,99.90
2017-10-28T02:25:24.051Z,99.90
2017-10-28T02:27:51.473Z,99.90
2017-10-28T02:30:19.675Z,99.90
2017-10-28T02:32:47.147Z,99.90
2017-10-28T02:35:14.610Z,99.90
2017-10-28T02:37:42.042Z,99.90
2017-10-28T02:40:09.542Z,99.90
2017-10-28T02:42:36.991Z,99.90
2017-10-28T02:45:04.413Z,99.90
2017-10-28T02:47:32.613Z,99.90
2017-10-28T02:50:00.099Z,99.90
2017-10-28T02:52:27.529Z,99.90
2017-10-28T02:54:55.007Z,99.90
2017-10-28T02:57:22.478Z,99.90
2017-10-28T02:59:49.907Z,99.90
2017-10-28T03:02:18.110Z,99.90
2017-10-28T03:04:45.529Z,99.90
2017-10-28T03:07:13.754Z,99.90
2017-10-28T03:09:41.214Z,99.90
2017-10-28T03:12:08.657Z,99.90
2017-10-28T03:14:36.070Z,99.90
2017-10-28T03:17:03.599Z,99.90
2017-10-28T03:19:31.067Z,99.90
2017-10-28T03:21:58.487Z,99.90
2017-10-28T03:24:26.686Z,99.90
2017-10-28T03:26:54.159Z,99.90
2017-10-28T03:29:21.595Z,99.90
2017-10-28T03:31:49.086Z,99.90
2017-10-28T03:34:16.515Z,99.90
2017-10-28T03:36:44.006Z,99.90
2017-10-28T03:39:11.470Z,99.90
2017-10-28T03:41:38.891Z,99.90
2017-10-28T03:44:07.109Z,99.90
2017-10-28T03:46:34.530Z,99.90
2017-10-28T03:49:02.727Z,99.90
2017-10-28T03:51:30.161Z,99.90
2017-10-28T03:53:58.382Z,99.90
2017-10-28T03:56:25.850Z,99.90
2017-10-28T03:58:53.398Z,99.90
2017-10-28T04:01:20.960Z,99.90
2017-10-28T04:03:48.436Z,99.90
2017-10-28T04:06:15.898Z,99.90
2017-10-28T04:08:43.326Z,99.90
2017-10-28T04:11:11.543Z,99.90
2017-10-28T04:13:38.962Z,99.90
2017-10-28T04:16:07.175Z,99.90
2017-10-28T04:18:34.603Z,99.90
2017-10-28T04:21:02.030Z,99.90
2017-10-28T04:23:29.467Z,99.90
2017-10-28T04:25:56.922Z,99.90
2017-10-28T04:28:24.358Z,99.90
2017-10-28T04:30:51.777Z,99.90
2017-10-28T04:33:19.302Z,99.90
2017-10-28T04:35:46.727Z,99.90
2017-10-28T04:38:14.942Z,99.90
2017-10-28T04:40:42.403Z,99.90
2017-10-28T04:43:09.826Z,99.90
2017-10-28T04:45:38.030Z,99.90
2017-10-28T04:48:05.469Z,99.90
2017-10-28T04:50:33.657Z,99.90
2017-10-28T04:53:01.146Z,99.90
2017-10-28T04:55:28.577Z,99.90
2017-10-28T04:57:56.004Z,99.90
2017-10-28T05:00:23.439Z,99.90
2017-10-28T05:02:50.994Z,99.90
2017-10-28T05:05:18.425Z,99.90
2017-10-28T05:07:45.914Z,99.90
2017-10-28T05:10:13.369Z,99.90
2017-10-28T05:12:40.835Z,99.90
2017-10-28T05:15:08.311Z,99.90
2017-10-28T05:17:35.758Z,99.90
2017-10-28T05:20:03.190Z,99.90
2017-10-28T05:22:30.622Z,99.90
2017-10-28T05:24:58.863Z,99.90
2017-10-28T05:27:26.343Z,99.90
2017-10-28T05:29:53.759Z,99.90
2017-10-28T05:32:21.199Z,99.90
2017-10-28T05:34:49.378Z,99.90
2017-10-28T05:37:17.572Z,99.90
2017-10-28T05:39:44.994Z,99.90
2017-10-28T05:42:12.426Z,99.90
2017-10-28T05:44:39.853Z,99.90
2017-10-28T05:47:07.277Z,99.90
2017-10-28T05:49:34.702Z,99.90
2017-10-28T05:52:02.133Z,99.90
2017-10-28T05:54:29.550Z,99.90
2017-10-28T05:56:56.997Z,99.90
2017-10-28T05:59:24.423Z,99.90
2017-10-28T06:01:51.842Z,99.90
2017-10-28T06:04:19.372Z,99.90
2017-10-28T06:06:46.827Z,99.90
2017-10-28T06:09:14.259Z,99.90
2017-10-28T06:11:41.678Z,99.90
2017-10-28T06:14:09.115Z,99.90
2017-10-28T06:16:36.571Z,99.90
2017-10-28T06:19:04.033Z,99.90
2017-10-28T06:21:31.449Z,99.90
2017-10-28T06:23:59.667Z,99.90
2017-10-28T06:26:27.134Z,99.90
2017-10-28T06:28:54.562Z,99.90
2017-10-28T06:31:22.057Z,99.90
2017-10-28T06:33:49.517Z,99.90
2017-10-28T06:36:16.979Z,99.90
2017-10-28T06:38:44.406Z,99.90
2017-10-28T06:41:12.602Z,99.90
2017-10-28T06:43:40.018Z,99.90
2017-10-28T06:46:07.454Z,99.90
2017-10-28T06:48:34.870Z,99.90
2017-10-28T06:51:02.308Z,99.90
2017-10-28T06:53:30.523Z,99.90
2017-10-28T06:55:57.949Z,99.90
2017-10-28T06:58:26.170Z,99.90
2017-10-28T07:00:53.633Z,99.90
2017-10-28T07:03:21.098Z,99.90
2017-10-28T07:05:48.562Z,99.90
2017-10-28T07:08:16.007Z,99.90
2017-10-28T07:10:43.487Z,99.90
2017-10-28T07:13:10.914Z,99.90
2017-10-28T07:15:38.401Z,99.90
2017-10-28T07:18:05.861Z,99.90
2017-10-28T07:20:33.282Z,99.90
2017-10-28T07:23:01.490Z,99.90
2017-10-28T07:25:28.969Z,99.90
2017-10-28T07:27:56.390Z,99.90
2017-10-28T07:30:24.603Z,99.90
2017-10-28T07:32:52.062Z,99.90
2017-10-28T07:35:19.504Z,99.90
2017-10-28T07:37:46.990Z,99.90
2017-10-28T07:40:14.451Z,99.90
2017-10-28T07:42:41.882Z,99.90
2017-10-28T07:45:09.373Z,99.90
2017-10-28T07:47:36.790Z,99.90
2017-10-28T07:50:04.995Z,99.90
2017-10-28T07:52:32.470Z,99.90
2017-10-28T07:54:59.898Z,99.90
2017-10-28T07:57:28.118Z,99.90
2017-10-28T07:59:55.626Z,99.90
2017-10-28T08:02:23.818Z,99.90
2017-10-28T08:04:52.042Z,99.90
2017-10-28T08:07:19.499Z,99.90
2017-10-28T08:09:46.962Z,99.90
2017-10-28T08:12:14.427Z,99.90
2017-10-28T08:14:41.850Z,99.90
2017-10-28T08:17:09.338Z,99.90
2017-10-28T08:19:36.797Z,99.90
2017-10-28T08:22:04.353Z,99.90
2017-10-28T08:24:31.826Z,99.90
2017-10-28T08:26:59.380Z,99.90
2017-10-28T08:29:26.855Z,99.90
2017-10-28T08:31:54.299Z,99.90
2017-10-28T08:34:21.726Z,99.90
2017-10-28T08:36:49.930Z,99.90
2017-10-28T08:39:18.870Z,99.90
2017-10-28T08:41:46.414Z,99.90
2017-10-28T08:44:13.878Z,99.90
2017-10-28T08:46:41.437Z,99.90
2017-10-28T08:49:08.863Z,99.90
2017-10-28T08:51:37.049Z,99.90
2017-10-28T08:54:04.485Z,99.90
2017-10-28T08:56:33.403Z,99.90
2017-10-28T08:59:00.897Z,99.90
2017-10-28T09:01:28.317Z,99.90
2017-10-28T09:03:56.506Z,99.90
2017-10-28T09:06:23.934Z,99.90
2017-10-28T09:08:51.546Z,99.90
2017-10-28T09:11:19.018Z,99.90
2017-10-28T09:13:46.445Z,98.70
2017-10-28T09:16:13.866Z,99.00
2017-10-28T09:18:41.349Z,99.30
2017-10-28T09:21:09.578Z,98.30
2017-10-28T09:23:37.027Z,98.20
2017-10-28T09:26:04.439Z,98.30
2017-10-28T09:28:31.965Z,99.10
2017-10-28T09:30:59.381Z,98.20
2017-10-28T09:33:27.601Z,97.90
2017-10-28T09:35:55.066Z,97.90
2017-10-28T09:38:22.526Z,97.90
2017-10-28T09:40:49.996Z,98.50
2017-10-28T09:43:17.502Z,98.40
2017-10-28T09:45:45.818Z,97.40
2017-10-28T09:48:13.292Z,97.40
2017-10-28T09:50:40.721Z,98.20
2017-10-28T09:53:08.141Z,98.40
2017-10-28T09:55:35.679Z,98.30
2017-10-28T09:58:03.142Z,97.10
2017-10-28T10:00:30.579Z,97.20
2017-10-28T10:02:58.058Z,97.50
2017-10-28T10:05:25.506Z,98.30
2017-10-28T10:07:52.928Z,98.10
2017-10-28T10:10:21.114Z,98.40
2017-10-28T10:12:49.336Z,97.50
2017-10-28T10:15:16.754Z,97.40
2017-10-28T10:17:44.966Z,98.00
2017-10-28T10:20:12.402Z,97.90
2017-10-28T10:22:40.624Z,96.90
2017-10-28T10:25:08.078Z,97.00
2017-10-28T10:27:35.538Z,97.20
2017-10-28T10:30:02.994Z,97.30
2017-10-28T10:32:30.462Z,97.80
2017-10-28T10:34:57.922Z,97.40
2017-10-28T10:37:25.398Z,97.70
2017-10-28T10:39:52.858Z,97.30
2017-10-28T10:42:20.309Z,97.60
2017-10-28T10:44:47.737Z,97.30
2017-10-28T10:47:15.978Z,97.30
2017-10-28T10:49:43.406Z,97.30
2017-10-28T10:52:10.825Z,97.30
2017-10-28T10:54:39.049Z,96.80
2017-10-28T10:57:06.465Z,96.80
2017-10-28T10:59:34.670Z,97.30
2017-10-28T11:02:02.150Z,97.30
2017-10-28T11:04:29.584Z,96.70
2017-10-28T11:06:57.070Z,97.50
2017-10-28T11:09:24.506Z,96.80
2017-10-28T11:11:51.996Z,97.30
2017-10-28T11:14:19.423Z,97.40
2017-10-28T11:16:46.846Z,98.00
2017-10-28T11:19:14.274Z,98.10
2017-10-28T11:21:41.698Z,98.50
2017-10-28T11:24:09.898Z,98.20
2017-10-28T11:26:37.318Z,98.20
2017-10-28T11:29:05.553Z,98.30
2017-10-28T11:31:32.978Z,98.30
2017-10-28T11:34:01.182Z,98.30
2017-10-28T11:36:28.660Z,98.30
2017-10-28T11:38:56.073Z,98.30
2017-10-28T11:41:24.293Z,98.70
2017-10-28T11:43:51.722Z,98.60
2017-10-28T11:46:19.167Z,98.80
2017-10-28T11:48:47.419Z,98.90
2017-10-28T11:51:14.845Z,99.20
2017-10-28T11:53:42.319Z,98.80
2017-10-28T11:56:09.753Z,98.90
2017-10-28T11:58:37.186Z,99.10
2017-10-28T12:01:04.708Z,99.00
2017-10-28T12:03:32.129Z,98.90
2017-10-28T12:06:00.333Z,99.00
2017-10-28T12:08:27.801Z,98.90
2017-10-28T12:10:55.247Z,98.70
2017-10-28T12:13:22.680Z,99.00
2017-10-28T12:15:50.906Z,98.30
2017-10-28T12:18:18.338Z,98.30
2017-10-28T12:20:45.827Z,98.80
2017-10-28T12:23:13.258Z,98.30
2017-10-28T12:25:40.682Z,98.30
2017-10-28T12:28:08.117Z,98.10
2017-10-28T12:30:35.561Z,98.20
2017-10-28T12:33:02.994Z,98.30
2017-10-28T12:35:31.226Z,98.30
2017-10-28T12:37:58.774Z,98.30
2017-10-28T12:40:26.234Z,97.80
2017-10-28T12:42:53.658Z,98.30
2017-10-28T12:45:21.866Z,97.70
2017-10-28T12:47:49.315Z,97.70
2017-10-28T12:50:16.734Z,97.60
2017-10-28T12:52:44.253Z,97.50
2017-10-28T12:55:11.714Z,97.40
2017-10-28T12:57:39.144Z,97.30
2017-10-28T13:00:07.356Z,97.20
2017-10-28T13:02:34.822Z,97.20
2017-10-28T13:05:02.253Z,97.40
2017-10-28T13:07:29.677Z,97.60
2017-10-28T13:09:57.190Z,97.80
2017-10-28T13:12:24.618Z,97.80
2017-10-28T13:14:52.817Z,98.10
2017-10-28T13:17:20.301Z,98.10
2017-10-28T13:19:47.726Z,98.10
2017-10-28T13:22:15.981Z,98.20
2017-10-28T13:24:43.401Z,98.10
2017-10-28T13:27:10.837Z,98.00
2017-10-28T13:29:38.257Z,98.10
2017-10-28T13:32:06.498Z,98.40
2017-10-28T13:34:33.987Z,98.50
2017-10-28T13:37:01.427Z,98.50
2017-10-28T13:39:28.847Z,98.50
2017-10-28T13:41:57.073Z,99.10
2017-10-28T13:44:24.523Z,99.00
2017-10-28T13:46:51.959Z,99.00
2017-10-28T13:49:20.189Z,99.00
2017-10-28T13:51:47.730Z,99.00
2017-10-28T13:54:15.158Z,99.00
2017-10-28T13:56:42.594Z,98.70
2017-10-28T13:59:10.018Z,98.70
2017-10-28T14:01:37.470Z,98.70
2017-10-28T14:04:04.894Z,98.80
2017-10-28T14:06:33.110Z,99.10
2017-10-28T14:09:00.546Z,99.10
2017-10-28T14:11:27.969Z,99.20
2017-10-28T14:13:56.210Z,99.30
2017-10-28T14:16:23.669Z,99.50
2017-10-28T14:18:51.111Z,99.40
2017-10-28T14:21:18.599Z,99.30
2017-10-28T14:23:46.033Z,99.50
2017-10-28T14:26:13.458Z,99.60
2017-10-28T14:28:42.418Z,99.20
2017-10-28T14:31:09.837Z,99.10
2017-10-28T14:33:38.037Z,99.10
2017-10-28T14:36:05.462Z,99.10
2017-10-28T14:38:32.898Z,99.10
2017-10-28T14:41:00.322Z,99.30
2017-10-28T14:43:27.804Z,99.10
2017-10-28T14:45:55.363Z,99.20
2017-10-28T14:48:22.858Z,99.40
2017-10-28T14:50:51.050Z,99.70
2017-10-28T14:53:19.257Z,99.90
2017-10-28T14:55:46.677Z,99.80
2017-10-28T14:58:14.101Z,99.90
2017-10-28T15:00:41.538Z,99.90
2017-10-28T15:03:09.032Z,99.90
2017-10-28T15:05:36.692Z,99.90
2017-10-28T15:08:04.114Z,99.90
2017-10-28T15:10:32.324Z,99.90
2017-10-28T15:12:59.746Z,99.90
2017-10-28T15:15:27.942Z,99.90
2017-10-28T15:17:55.359Z,99.90
2017-10-28T15:20:22.798Z,99.90
2017-10-28T15:22:50.245Z,99.90
2017-10-28T15:25:17.684Z,99.90
2017-10-28T15:27:45.166Z,99.90
2017-10-28T15:30:12.585Z,99.90
2017-10-28T15:32:40.805Z,99.90
2017-10-28T15:35:08.269Z,99.90
2017-10-28T15:37:35.714Z,99.90
2017-10-28T15:40:03.134Z,99.90
2017-10-28T15:42:31.478Z,99.90
2017-10-28T15:44:58.905Z,99.90
2017-10-28T15:47:26.342Z,99.90
2017-10-28T15:49:53.762Z,99.90
2017-10-28T15:52:21.192Z,99.90
2017-10-28T15:54:48.685Z,99.90
2017-10-28T15:57:16.141Z,99.90
2017-10-28T15:59:43.602Z,99.90
2017-10-28T16:02:11.021Z,99.90
2017-10-28T16:04:39.237Z,99.90
2017-10-28T16:07:06.662Z,99.90
2017-10-28T16:09:34.874Z,99.90
2017-10-28T16:12:02.347Z,99.90
2017-10-28T16:14:29.797Z,99.90
2017-10-28T16:16:57.265Z,99.90
2017-10-28T16:19:24.694Z,99.90
2017-10-28T16:21:52.118Z,99.90
2017-10-28T16:24:19.655Z,99.90
2017-10-28T16:26:47.077Z,99.90
2017-10-28T16:29:15.277Z,99.90
2017-10-28T16:31:42.750Z,99.90
2017-10-28T16:34:10.198Z,99.90
2017-10-28T16:36:38.381Z,99.90
2017-10-28T16:39:05.793Z,99.90
2017-10-28T16:41:33.239Z,99.90
2017-10-28T16:44:00.645Z,99.90
2017-10-28T16:46:28.138Z,99.90
2017-10-28T16:48:55.598Z,99.90
2017-10-28T16:51:23.034Z,99.90
2017-10-28T16:53:51.240Z,99.90
2017-10-28T16:56:18.665Z,99.90
2017-10-28T16:58:46.158Z,99.90
2017-10-28T17:01:13.605Z,99.90
2017-10-28T17:03:41.028Z,99.90
2017-10-28T17:06:09.347Z,99.90
2017-10-28T17:08:37.013Z,99.90
2017-10-28T17:11:04.481Z,99.90
2017-10-28T17:13:31.922Z,99.90
2017-10-28T17:15:59.408Z,99.90
2017-10-28T17:18:26.874Z,99.90
2017-10-28T17:20:54.297Z,99.90
2017-10-28T17:23:22.511Z,99.90
2017-10-28T17:25:49.968Z,99.90
2017-10-28T17:28:17.426Z,99.90
2017-10-28T17:30:44.895Z,99.90
2017-10-28T17:33:12.410Z,99.90
2017-10-28T17:35:40.638Z,99.90
2017-10-28T17:38:08.067Z,99.90
2017-10-28T17:40:35.502Z,99.90
2017-10-28T17:43:02.923Z,99.90
2017-10-28T17:45:30.385Z,99.90
2017-10-28T17:47:57.806Z,99.90
2017-10-28T17:50:26.015Z,99.90
2017-10-28T17:52:53.449Z,99.90
2017-10-28T17:55:21.658Z,99.90
2017-10-28T17:57:49.422Z,99.90
2017-10-28T18:00:16.887Z,99.90
2017-10-28T18:02:44.345Z,99.90
2017-10-28T18:05:11.815Z,99.90
2017-10-28T18:07:39.306Z,99.90
2017-10-28T18:10:06.743Z,99.90
2017-10-28T18:12:34.194Z,99.90
2017-10-28T18:15:01.626Z,99.90
2017-10-28T18:17:29.050Z,99.90
2017-10-28T18:19:56.578Z,99.90
2017-10-28T18:22:24.020Z,99.90
2017-10-28T18:24:51.447Z,99.90
2017-10-28T18:27:18.996Z,99.90
2017-10-28T18:29:46.427Z,99.90
2017-10-28T18:32:13.882Z,99.90
2017-10-28T18:34:41.313Z,99.90
2017-10-28T18:37:09.516Z,99.90
2017-10-28T18:39:36.981Z,99.90
2017-10-28T18:42:04.432Z,99.90
2017-10-28T18:44:31.905Z,99.90
2017-10-28T18:46:59.375Z,99.90
2017-10-28T18:49:26.803Z,99.90
2017-10-28T18:51:54.394Z,99.90
2017-10-28T18:54:21.826Z,99.90
2017-10-28T18:56:49.245Z,99.90
2017-10-28T18:59:16.778Z,99.90
2017-10-28T19:01:44.199Z,99.90
2017-10-28T19:04:12.389Z,99.90
2017-10-28T19:06:39.877Z,99.90
2017-10-28T19:09:07.346Z,99.90
2017-10-28T19:11:34.789Z,99.90
2017-10-28T19:14:02.215Z,99.90
2017-10-28T19:16:30.406Z,99.90
2017-10-28T19:18:58.725Z,99.90
2017-10-28T19:21:26.150Z,99.90
2017-10-28T19:23:54.343Z,99.90
2017-10-28T19:26:21.770Z,99.90
2017-10-28T19:28:49.957Z,99.90
2017-10-28T19:31:18.162Z,99.90
2017-10-28T19:33:45.650Z,99.90
2017-10-28T19:36:13.078Z,99.90
2017-10-28T19:38:40.562Z,99.90
2017-10-28T19:41:07.999Z,99.90
2017-10-28T19:43:35.502Z,99.90
2017-10-28T19:46:02.946Z,99.90
2017-10-28T19:48:30.371Z,99.90
2017-10-28T19:50:58.553Z,99.90
2017-10-28T19:53:26.051Z,99.90
2017-10-28T19:55:53.559Z,99.90
2017-10-28T19:58:21.079Z,99.90
2017-10-28T20:00:48.530Z,99.90
2017-10-28T20:03:16.095Z,99.90
2017-10-28T20:05:43.562Z,99.90
2017-10-28T20:08:11.034Z,99.90
2017-10-28T20:10:38.449Z,99.90
2017-10-28T20:13:05.887Z,99.90
2017-10-28T20:15:33.310Z,99.90
2017-10-28T20:18:00.741Z,99.90
2017-10-28T20:20:28.234Z,99.90
2017-10-28T20:22:55.682Z,99.90
2017-10-28T20:25:23.102Z,99.90
2017-10-28T20:27:51.322Z,99.90
2017-10-28T20:30:18.742Z,99.90
2017-10-28T20:32:46.951Z,99.90
2017-10-28T20:35:14.387Z,99.90
2017-10-28T20:37:42.598Z,99.90
2017-10-28T20:40:10.086Z,99.90
2017-10-28T20:42:37.493Z,99.90
2017-10-28T20:45:05.704Z,99.90
2017-10-28T20:47:33.122Z,99.90
2017-10-28T20:50:01.317Z,99.90
2017-10-28T20:52:28.737Z,99.90
2017-10-28T20:54:56.169Z,99.90
2017-10-28T20:57:23.599Z,99.90
2017-10-28T20:59:51.026Z,99.90
2017-10-28T21:02:18.449Z,99.90
2017-10-28T21:04:45.877Z,99.90
2017-10-28T21:07:13.370Z,99.90
2017-10-28T21:09:40.827Z,99.90
2017-10-28T21:12:08.298Z,99.90
2017-10-28T21:14:35.743Z,99.90
2017-10-28T21:17:03.217Z,99.90
2017-10-28T21:19:30.638Z,99.90
2017-10-28T21:21:58.858Z,99.90
2017-10-28T21:24:26.275Z,99.90
2017-10-28T21:26:54.470Z,99.90
2017-10-28T21:29:21.955Z,99.90
2017-10-28T21:31:49.414Z,99.90
2017-10-28T21:34:16.835Z,99.90
2017-10-28T21:36:45.874Z,99.90
2017-10-28T21:39:13.338Z,99.90
2017-10-28T21:41:40.789Z,99.90
2017-10-28T21:44:08.258Z,99.90
2017-10-28T21:46:35.817Z,99.90
2017-10-28T21:49:03.313Z,99.90
2017-10-28T21:51:30.731Z,99.90
2017-10-28T21:53:58.202Z,99.90
2017-10-28T21:56:25.717Z,99.90
2017-10-28T21:58:53.323Z,99.90
2017-10-28T22:01:20.801Z,99.90
2017-10-28T22:03:48.230Z,99.90
2017-10-28T22:06:15.728Z,99.90
2017-10-28T22:08:43.188Z,99.90
2017-10-28T22:11:10.592Z,99.90
2017-10-28T22:13:38.795Z,99.90
2017-10-28T22:16:06.277Z,99.90
2017-10-28T22:18:33.738Z,99.90
2017-10-28T22:21:01.157Z,99.90
2017-10-28T22:23:29.373Z,99.90
2017-10-28T22:25:56.842Z,99.90
2017-10-28T22:28:24.278Z,99.90
2017-10-28T22:30:51.698Z,99.90
2017-10-28T22:33:19.125Z,99.90
2017-10-28T22:35:46.591Z,99.90
2017-10-28T22:38:14.018Z,99.90
2017-10-28T22:40:41.511Z,99.90
2017-10-28T22:43:08.975Z,99.90
2017-10-28T22:45:36.397Z,99.90
2017-10-28T22:48:03.826Z,99.90
2017-10-28T22:50:31.358Z,99.90
2017-10-28T22:52:58.822Z,99.90
2017-10-28T22:55:26.278Z,99.90
2017-10-28T22:57:53.744Z,99.90
2017-10-28T23:00:21.209Z,99.90
2017-10-28T23:02:48.652Z,99.90
2017-10-28T23:05:16.105Z,99.90
2017-10-28T23:07:43.510Z,99.90
2017-10-28T23:10:10.982Z,99.90
2017-10-28T23:12:39.933Z,99.90
2017-10-28T23:15:07.402Z,99.90
2017-10-28T23:17:34.858Z,99.90
2017-10-28T23:20:02.330Z,99.90
2017-10-28T23:22:29.790Z,99.90
2017-10-28T23:24:57.218Z,99.90
2017-10-28T23:27:24.750Z,99.90
2017-10-28T23:29:52.166Z,99.90
2017-10-28T23:32:19.592Z,99.90
2017-10-28T23:34:47.785Z,99.90
2017-10-28T23:37:16.380Z,99.90
2017-10-28T23:39:44.550Z,99.90
2017-10-28T23:42:12.034Z,99.90
2017-10-28T23:44:39.602Z,99.90
2017-10-28T23:47:07.030Z,99.90
2017-10-28T23:49:34.451Z,99.90
2017-10-28T23:52:01.998Z,99.90
2017-10-28T23:54:29.422Z,99.90
2017-10-28T23:56:56.902Z,99.90
2017-10-28T23:59:24.365Z,99.90
